sensor_id;sensor_type;location;lat;lon;timestamp;P1;durP1;ratioP1;P2;durP2;ratioP2
17340;SDS011;8788;49.930;8.660;2024-02-16T00:01:03;2.95;;;1.70;;
17340;SDS011;8788;49.930;8.660;2024-02-16T00:03:30;3.25;;;1.58;;
17340;SDS011;8788;49.930;8.660;2024-02-16T00:05:58;5.00;;;1.83;;
17340;SDS011;8788;49.930;8.660;2024-02-16T00:08:25;6.35;;;1.42;;
17340;SDS011;8788;49.930;8.660;2024-02-16T00:10:53;2.47;;;1.48;;
17340;SDS011;8788;49.930;8.660;2024-02-16T00:13:21;2.58;;;1.50;;
17340;SDS011;8788;49.930;8.660;2024-02-16T00:15:48;2.35;;;1.05;;
17340;SDS011;8788;49.930;8.660;2024-02-16T00:18:15;5.97;;;1.35;;
17340;SDS011;8788;49.930;8.660;2024-02-16T00:20:42;5.13;;;1.52;;
17340;SDS011;8788;49.930;8.660;2024-02-16T00:23:09;3.72;;;1.77;;
17340;SDS011;8788;49.930;8.660;2024-02-16T00:25:36;3.38;;;1.30;;
17340;SDS011;8788;49.930;8.660;2024-02-16T00:28:06;6.13;;;3.08;;
17340;SDS011;8788;49.930;8.660;2024-02-16T00:30:33;5.68;;;2.30;;
17340;SDS011;8788;49.930;8.660;2024-02-16T00:33:01;3.30;;;1.70;;
17340;SDS011;8788;49.930;8.660;2024-02-16T00:35:28;6.63;;;1.90;;
17340;SDS011;8788;49.930;8.660;2024-02-16T00:37:58;4.43;;;2.28;;
17340;SDS011;8788;49.930;8.660;2024-02-16T00:40:25;5.35;;;1.67;;
17340;SDS011;8788;49.930;8.660;2024-02-16T00:42:52;9.68;;;1.70;;
17340;SDS011;8788;49.930;8.660;2024-02-16T00:45:21;3.28;;;1.40;;
17340;SDS011;8788;49.930;8.660;2024-02-16T00:47:48;4.90;;;1.70;;
17340;SDS011;8788;49.930;8.660;2024-02-16T00:50:15;4.45;;;1.75;;
17340;SDS011;8788;49.930;8.660;2024-02-16T00:52:42;3.17;;;1.52;;
17340;SDS011;8788;49.930;8.660;2024-02-16T00:55:10;3.45;;;1.55;;
17340;SDS011;8788;49.930;8.660;2024-02-16T00:57:38;12.77;;;2.40;;
17340;SDS011;8788;49.930;8.660;2024-02-16T01:00:06;3.22;;;2.10;;
17340;SDS011;8788;49.930;8.660;2024-02-16T01:02:35;8.38;;;1.90;;
17340;SDS011;8788;49.930;8.660;2024-02-16T01:05:04;4.57;;;1.70;;
17340;SDS011;8788;49.930;8.660;2024-02-16T01:07:35;5.07;;;1.85;;
17340;SDS011;8788;49.930;8.660;2024-02-16T01:10:02;5.72;;;1.50;;
17340;SDS011;8788;49.930;8.660;2024-02-16T01:12:29;5.85;;;1.50;;
17340;SDS011;8788;49.930;8.660;2024-02-16T01:14:57;4.20;;;1.77;;
17340;SDS011;8788;49.930;8.660;2024-02-16T01:17:25;4.05;;;1.60;;
17340;SDS011;8788;49.930;8.660;2024-02-16T01:19:53;5.90;;;1.42;;
17340;SDS011;8788;49.930;8.660;2024-02-16T01:22:20;2.03;;;1.20;;
17340;SDS011;8788;49.930;8.660;2024-02-16T01:24:47;3.20;;;1.42;;
17340;SDS011;8788;49.930;8.660;2024-02-16T01:27:14;4.15;;;1.63;;
17340;SDS011;8788;49.930;8.660;2024-02-16T01:29:42;4.13;;;1.60;;
17340;SDS011;8788;49.930;8.660;2024-02-16T01:32:09;4.47;;;1.40;;
17340;SDS011;8788;49.930;8.660;2024-02-16T01:34:36;7.13;;;1.60;;
17340;SDS011;8788;49.930;8.660;2024-02-16T01:37:05;3.78;;;1.60;;
17340;SDS011;8788;49.930;8.660;2024-02-16T01:39:33;3.53;;;1.63;;
17340;SDS011;8788;49.930;8.660;2024-02-16T01:42:00;5.97;;;1.95;;
17340;SDS011;8788;49.930;8.660;2024-02-16T01:44:27;2.40;;;1.70;;
17340;SDS011;8788;49.930;8.660;2024-02-16T01:46:54;5.13;;;2.00;;
17340;SDS011;8788;49.930;8.660;2024-02-16T01:49:21;3.55;;;1.27;;
17340;SDS011;8788;49.930;8.660;2024-02-16T01:51:48;8.10;;;2.10;;
17340;SDS011;8788;49.930;8.660;2024-02-16T01:54:17;3.92;;;1.40;;
17340;SDS011;8788;49.930;8.660;2024-02-16T01:56:44;5.22;;;1.50;;
17340;SDS011;8788;49.930;8.660;2024-02-16T01:59:11;3.00;;;1.35;;
17340;SDS011;8788;49.930;8.660;2024-02-16T02:01:38;4.18;;;1.85;;
17340;SDS011;8788;49.930;8.660;2024-02-16T02:04:05;3.25;;;1.48;;
17340;SDS011;8788;49.930;8.660;2024-02-16T02:06:33;4.25;;;1.45;;
17340;SDS011;8788;49.930;8.660;2024-02-16T02:09:00;6.63;;;1.70;;
17340;SDS011;8788;49.930;8.660;2024-02-16T02:11:29;9.25;;;2.03;;
17340;SDS011;8788;49.930;8.660;2024-02-16T02:13:56;2.60;;;1.38;;
17340;SDS011;8788;49.930;8.660;2024-02-16T02:16:23;4.57;;;1.40;;
17340;SDS011;8788;49.930;8.660;2024-02-16T02:18:51;4.63;;;1.77;;
17340;SDS011;8788;49.930;8.660;2024-02-16T02:21:18;5.47;;;1.83;;
17340;SDS011;8788;49.930;8.660;2024-02-16T02:23:47;4.60;;;1.50;;
17340;SDS011;8788;49.930;8.660;2024-02-16T02:26:14;4.40;;;1.67;;
17340;SDS011;8788;49.930;8.660;2024-02-16T02:28:42;8.13;;;1.80;;
17340;SDS011;8788;49.930;8.660;2024-02-16T02:31:09;6.70;;;1.48;;
17340;SDS011;8788;49.930;8.660;2024-02-16T02:33:36;2.17;;;1.25;;
17340;SDS011;8788;49.930;8.660;2024-02-16T02:36:03;4.05;;;1.50;;
17340;SDS011;8788;49.930;8.660;2024-02-16T02:38:31;1.88;;;1.60;;
17340;SDS011;8788;49.930;8.660;2024-02-16T02:40:59;7.00;;;1.90;;
17340;SDS011;8788;49.930;8.660;2024-02-16T02:43:27;4.20;;;1.88;;
17340;SDS011;8788;49.930;8.660;2024-02-16T02:45:54;5.72;;;2.28;;
17340;SDS011;8788;49.930;8.660;2024-02-16T02:48:21;4.07;;;1.63;;
17340;SDS011;8788;49.930;8.660;2024-02-16T02:50:48;6.70;;;2.03;;
17340;SDS011;8788;49.930;8.660;2024-02-16T02:53:15;3.25;;;1.98;;
17340;SDS011;8788;49.930;8.660;2024-02-16T02:55:43;7.05;;;2.55;;
17340;SDS011;8788;49.930;8.660;2024-02-16T02:58:11;3.65;;;1.85;;
17340;SDS011;8788;49.930;8.660;2024-02-16T03:00:39;4.70;;;2.20;;
17340;SDS011;8788;49.930;8.660;2024-02-16T03:03:06;6.43;;;2.03;;
17340;SDS011;8788;49.930;8.660;2024-02-16T03:05:33;6.95;;;2.17;;
17340;SDS011;8788;49.930;8.660;2024-02-16T03:08:00;6.93;;;2.10;;
17340;SDS011;8788;49.930;8.660;2024-02-16T03:10:27;3.90;;;1.73;;
17340;SDS011;8788;49.930;8.660;2024-02-16T03:12:59;6.80;;;2.08;;
17340;SDS011;8788;49.930;8.660;2024-02-16T03:15:29;3.35;;;1.73;;
17340;SDS011;8788;49.930;8.660;2024-02-16T03:17:56;2.75;;;1.73;;
17340;SDS011;8788;49.930;8.660;2024-02-16T03:20:23;9.13;;;1.83;;
17340;SDS011;8788;49.930;8.660;2024-02-16T03:22:50;4.63;;;1.98;;
17340;SDS011;8788;49.930;8.660;2024-02-16T03:25:17;5.47;;;1.80;;
17340;SDS011;8788;49.930;8.660;2024-02-16T03:27:45;5.03;;;1.83;;
17340;SDS011;8788;49.930;8.660;2024-02-16T03:30:12;5.75;;;2.10;;
17340;SDS011;8788;49.930;8.660;2024-02-16T03:32:41;4.20;;;1.80;;
17340;SDS011;8788;49.930;8.660;2024-02-16T03:35:08;5.63;;;2.22;;
17340;SDS011;8788;49.930;8.660;2024-02-16T03:37:35;3.35;;;1.80;;
17340;SDS011;8788;49.930;8.660;2024-02-16T03:40:04;6.80;;;2.00;;
17340;SDS011;8788;49.930;8.660;2024-02-16T03:42:33;3.47;;;2.05;;
17340;SDS011;8788;49.930;8.660;2024-02-16T03:45:00;3.38;;;2.13;;
17340;SDS011;8788;49.930;8.660;2024-02-16T03:47:28;4.85;;;1.85;;
17340;SDS011;8788;49.930;8.660;2024-02-16T03:49:56;4.38;;;1.80;;
17340;SDS011;8788;49.930;8.660;2024-02-16T03:52:23;3.75;;;2.00;;
17340;SDS011;8788;49.930;8.660;2024-02-16T03:54:51;4.63;;;1.92;;
17340;SDS011;8788;49.930;8.660;2024-02-16T03:57:18;2.75;;;1.98;;
17340;SDS011;8788;49.930;8.660;2024-02-16T03:59:45;3.47;;;1.50;;
17340;SDS011;8788;49.930;8.660;2024-02-16T04:02:12;4.40;;;1.67;;
17340;SDS011;8788;49.930;8.660;2024-02-16T04:04:39;4.85;;;2.13;;
17340;SDS011;8788;49.930;8.660;2024-02-16T04:07:08;3.08;;;1.90;;
17340;SDS011;8788;49.930;8.660;2024-02-16T04:09:35;3.38;;;1.80;;
17340;SDS011;8788;49.930;8.660;2024-02-16T04:12:02;3.78;;;2.03;;
17340;SDS011;8788;49.930;8.660;2024-02-16T04:14:30;3.80;;;2.10;;
17340;SDS011;8788;49.930;8.660;2024-02-16T04:16:57;3.85;;;1.85;;
17340;SDS011;8788;49.930;8.660;2024-02-16T04:19:25;3.90;;;2.00;;
17340;SDS011;8788;49.930;8.660;2024-02-16T04:21:52;4.13;;;2.15;;
17340;SDS011;8788;49.930;8.660;2024-02-16T04:24:20;3.20;;;1.85;;
17340;SDS011;8788;49.930;8.660;2024-02-16T04:26:47;4.78;;;2.17;;
17340;SDS011;8788;49.930;8.660;2024-02-16T04:29:15;6.07;;;2.20;;
17340;SDS011;8788;49.930;8.660;2024-02-16T04:31:42;2.33;;;1.77;;
17340;SDS011;8788;49.930;8.660;2024-02-16T04:34:11;4.55;;;2.08;;
17340;SDS011;8788;49.930;8.660;2024-02-16T04:36:38;9.23;;;2.08;;
17340;SDS011;8788;49.930;8.660;2024-02-16T04:39:05;4.03;;;1.80;;
17340;SDS011;8788;49.930;8.660;2024-02-16T04:41:33;4.85;;;1.90;;
17340;SDS011;8788;49.930;8.660;2024-02-16T04:44:00;5.55;;;1.70;;
17340;SDS011;8788;49.930;8.660;2024-02-16T04:46:27;7.97;;;2.10;;
17340;SDS011;8788;49.930;8.660;2024-02-16T04:48:54;4.40;;;1.80;;
17340;SDS011;8788;49.930;8.660;2024-02-16T04:51:22;3.90;;;1.98;;
17340;SDS011;8788;49.930;8.660;2024-02-16T04:53:49;3.10;;;1.77;;
17340;SDS011;8788;49.930;8.660;2024-02-16T04:56:16;4.60;;;2.00;;
17340;SDS011;8788;49.930;8.660;2024-02-16T04:58:44;7.13;;;2.45;;
17340;SDS011;8788;49.930;8.660;2024-02-16T05:01:12;5.25;;;1.92;;
17340;SDS011;8788;49.930;8.660;2024-02-16T05:03:39;5.93;;;2.50;;
17340;SDS011;8788;49.930;8.660;2024-02-16T05:06:06;4.35;;;2.40;;
17340;SDS011;8788;49.930;8.660;2024-02-16T05:08:33;2.70;;;1.95;;
17340;SDS011;8788;49.930;8.660;2024-02-16T05:11:00;4.88;;;1.70;;
17340;SDS011;8788;49.930;8.660;2024-02-16T05:13:28;2.72;;;2.13;;
17340;SDS011;8788;49.930;8.660;2024-02-16T05:15:56;3.15;;;2.40;;
17340;SDS011;8788;49.930;8.660;2024-02-16T05:18:23;3.15;;;1.83;;
17340;SDS011;8788;49.930;8.660;2024-02-16T05:20:50;5.35;;;2.15;;
17340;SDS011;8788;49.930;8.660;2024-02-16T05:23:17;4.47;;;2.30;;
17340;SDS011;8788;49.930;8.660;2024-02-16T05:25:44;4.53;;;2.50;;
17340;SDS011;8788;49.930;8.660;2024-02-16T05:28:11;3.38;;;2.10;;
17340;SDS011;8788;49.930;8.660;2024-02-16T05:30:39;3.42;;;1.92;;
17340;SDS011;8788;49.930;8.660;2024-02-16T05:33:07;4.30;;;2.53;;
17340;SDS011;8788;49.930;8.660;2024-02-16T05:35:34;5.45;;;2.10;;
17340;SDS011;8788;49.930;8.660;2024-02-16T05:38:05;4.55;;;2.65;;
17340;SDS011;8788;49.930;8.660;2024-02-16T05:40:45;5.18;;;2.38;;
17340;SDS011;8788;49.930;8.660;2024-02-16T05:43:19;5.68;;;2.20;;
17340;SDS011;8788;49.930;8.660;2024-02-16T05:45:46;4.57;;;2.13;;
17340;SDS011;8788;49.930;8.660;2024-02-16T05:48:15;4.25;;;2.10;;
17340;SDS011;8788;49.930;8.660;2024-02-16T05:50:42;6.18;;;2.45;;
17340;SDS011;8788;49.930;8.660;2024-02-16T05:53:09;5.80;;;2.08;;
17340;SDS011;8788;49.930;8.660;2024-02-16T05:55:36;4.93;;;2.45;;
17340;SDS011;8788;49.930;8.660;2024-02-16T05:58:03;6.13;;;2.17;;
17340;SDS011;8788;49.930;8.660;2024-02-16T06:00:34;5.18;;;2.25;;
17340;SDS011;8788;49.930;8.660;2024-02-16T06:03:01;1.67;;;1.52;;
17340;SDS011;8788;49.930;8.660;2024-02-16T06:05:29;5.57;;;1.73;;
17340;SDS011;8788;49.930;8.660;2024-02-16T06:07:58;5.53;;;1.90;;
17340;SDS011;8788;49.930;8.660;2024-02-16T06:10:25;6.88;;;1.88;;
17340;SDS011;8788;49.930;8.660;2024-02-16T06:12:53;5.18;;;1.88;;
17340;SDS011;8788;49.930;8.660;2024-02-16T06:15:20;5.82;;;1.77;;
17340;SDS011;8788;49.930;8.660;2024-02-16T06:17:47;5.70;;;2.03;;
17340;SDS011;8788;49.930;8.660;2024-02-16T06:20:15;5.82;;;2.35;;
17340;SDS011;8788;49.930;8.660;2024-02-16T06:22:43;5.88;;;1.70;;
17340;SDS011;8788;49.930;8.660;2024-02-16T06:25:11;7.00;;;1.60;;
17340;SDS011;8788;49.930;8.660;2024-02-16T06:27:39;6.93;;;1.75;;
17340;SDS011;8788;49.930;8.660;2024-02-16T06:30:06;6.03;;;1.95;;
17340;SDS011;8788;49.930;8.660;2024-02-16T06:32:38;4.90;;;1.63;;
17340;SDS011;8788;49.930;8.660;2024-02-16T06:35:06;4.32;;;1.48;;
17340;SDS011;8788;49.930;8.660;2024-02-16T06:37:33;6.90;;;2.47;;
17340;SDS011;8788;49.930;8.660;2024-02-16T06:40:01;7.90;;;2.08;;
17340;SDS011;8788;49.930;8.660;2024-02-16T06:42:27;5.72;;;1.48;;
17340;SDS011;8788;49.930;8.660;2024-02-16T06:44:55;2.97;;;1.55;;
17340;SDS011;8788;49.930;8.660;2024-02-16T06:47:22;5.63;;;1.88;;
17340;SDS011;8788;49.930;8.660;2024-02-16T06:49:51;3.50;;;1.25;;
17340;SDS011;8788;49.930;8.660;2024-02-16T06:52:18;3.88;;;2.00;;
17340;SDS011;8788;49.930;8.660;2024-02-16T06:54:45;3.38;;;1.52;;
17340;SDS011;8788;49.930;8.660;2024-02-16T06:57:13;2.45;;;1.70;;
17340;SDS011;8788;49.930;8.660;2024-02-16T06:59:40;2.83;;;1.40;;
17340;SDS011;8788;49.930;8.660;2024-02-16T07:02:07;2.35;;;1.52;;
17340;SDS011;8788;49.930;8.660;2024-02-16T07:04:36;4.65;;;2.13;;
17340;SDS011;8788;49.930;8.660;2024-02-16T07:07:03;5.00;;;1.75;;
17340;SDS011;8788;49.930;8.660;2024-02-16T07:09:31;5.78;;;2.00;;
17340;SDS011;8788;49.930;8.660;2024-02-16T07:11:58;4.90;;;2.15;;
17340;SDS011;8788;49.930;8.660;2024-02-16T07:14:27;3.63;;;2.30;;
17340;SDS011;8788;49.930;8.660;2024-02-16T07:16:54;5.03;;;2.08;;
17340;SDS011;8788;49.930;8.660;2024-02-16T07:19:21;5.00;;;2.70;;
17340;SDS011;8788;49.930;8.660;2024-02-16T07:21:48;3.40;;;2.33;;
17340;SDS011;8788;49.930;8.660;2024-02-16T07:24:15;5.50;;;2.72;;
17340;SDS011;8788;49.930;8.660;2024-02-16T07:26:43;6.20;;;2.60;;
17340;SDS011;8788;49.930;8.660;2024-02-16T07:29:10;3.53;;;2.47;;
17340;SDS011;8788;49.930;8.660;2024-02-16T07:31:39;5.40;;;2.97;;
17340;SDS011;8788;49.930;8.660;2024-02-16T07:34:06;7.70;;;3.20;;
17340;SDS011;8788;49.930;8.660;2024-02-16T07:36:33;3.85;;;2.90;;
17340;SDS011;8788;49.930;8.660;2024-02-16T07:39:01;3.67;;;2.97;;
17340;SDS011;8788;49.930;8.660;2024-02-16T07:41:29;5.05;;;2.80;;
17340;SDS011;8788;49.930;8.660;2024-02-16T07:43:56;4.88;;;2.67;;
17340;SDS011;8788;49.930;8.660;2024-02-16T07:46:24;4.68;;;2.53;;
17340;SDS011;8788;49.930;8.660;2024-02-16T07:48:52;5.18;;;2.70;;
17340;SDS011;8788;49.930;8.660;2024-02-16T07:51:19;5.15;;;2.70;;
17340;SDS011;8788;49.930;8.660;2024-02-16T07:53:46;4.47;;;3.50;;
17340;SDS011;8788;49.930;8.660;2024-02-16T07:56:14;4.10;;;2.85;;
17340;SDS011;8788;49.930;8.660;2024-02-16T07:58:41;3.25;;;2.72;;
17340;SDS011;8788;49.930;8.660;2024-02-16T08:01:11;6.43;;;2.75;;
17340;SDS011;8788;49.930;8.660;2024-02-16T08:03:40;3.67;;;2.90;;
17340;SDS011;8788;49.930;8.660;2024-02-16T08:06:09;5.60;;;3.10;;
17340;SDS011;8788;49.930;8.660;2024-02-16T08:08:36;4.82;;;2.70;;
17340;SDS011;8788;49.930;8.660;2024-02-16T08:11:03;4.05;;;2.75;;
17340;SDS011;8788;49.930;8.660;2024-02-16T08:13:30;4.65;;;2.97;;
17340;SDS011;8788;49.930;8.660;2024-02-16T08:15:57;7.20;;;3.25;;
17340;SDS011;8788;49.930;8.660;2024-02-16T08:18:24;5.93;;;3.15;;
17340;SDS011;8788;49.930;8.660;2024-02-16T08:20:51;8.55;;;3.25;;
17340;SDS011;8788;49.930;8.660;2024-02-16T08:23:19;5.30;;;3.17;;
17340;SDS011;8788;49.930;8.660;2024-02-16T08:25:46;6.50;;;3.75;;
17340;SDS011;8788;49.930;8.660;2024-02-16T08:28:13;5.90;;;3.72;;
17340;SDS011;8788;49.930;8.660;2024-02-16T08:30:40;6.85;;;3.13;;
17340;SDS011;8788;49.930;8.660;2024-02-16T08:33:09;4.68;;;3.28;;
17340;SDS011;8788;49.930;8.660;2024-02-16T08:35:37;4.72;;;3.17;;
17340;SDS011;8788;49.930;8.660;2024-02-16T08:38:04;6.80;;;3.10;;
17340;SDS011;8788;49.930;8.660;2024-02-16T08:40:37;6.28;;;3.28;;
17340;SDS011;8788;49.930;8.660;2024-02-16T08:43:04;4.90;;;3.45;;
17340;SDS011;8788;49.930;8.660;2024-02-16T08:45:32;7.35;;;3.40;;
17340;SDS011;8788;49.930;8.660;2024-02-16T08:48:00;6.50;;;3.63;;
17340;SDS011;8788;49.930;8.660;2024-02-16T08:50:29;6.72;;;3.45;;
17340;SDS011;8788;49.930;8.660;2024-02-16T08:52:56;6.68;;;3.75;;
17340;SDS011;8788;49.930;8.660;2024-02-16T08:55:23;6.15;;;3.30;;
17340;SDS011;8788;49.930;8.660;2024-02-16T08:57:51;5.40;;;3.13;;
17340;SDS011;8788;49.930;8.660;2024-02-16T09:00:18;10.80;;;4.28;;
17340;SDS011;8788;49.930;8.660;2024-02-16T09:02:46;5.35;;;3.47;;
17340;SDS011;8788;49.930;8.660;2024-02-16T09:05:13;5.80;;;3.55;;
17340;SDS011;8788;49.930;8.660;2024-02-16T09:07:40;5.35;;;3.63;;
17340;SDS011;8788;49.930;8.660;2024-02-16T09:10:07;5.05;;;3.20;;
17340;SDS011;8788;49.930;8.660;2024-02-16T09:12:34;4.60;;;3.63;;
17340;SDS011;8788;49.930;8.660;2024-02-16T09:15:03;5.53;;;3.55;;
17340;SDS011;8788;49.930;8.660;2024-02-16T09:17:31;5.90;;;3.53;;
17340;SDS011;8788;49.930;8.660;2024-02-16T09:19:58;3.85;;;3.00;;
17340;SDS011;8788;49.930;8.660;2024-02-16T09:22:25;5.38;;;3.63;;
17340;SDS011;8788;49.930;8.660;2024-02-16T09:24:52;4.78;;;3.10;;
17340;SDS011;8788;49.930;8.660;2024-02-16T09:27:20;7.68;;;3.55;;
17340;SDS011;8788;49.930;8.660;2024-02-16T09:29:49;4.32;;;3.53;;
17340;SDS011;8788;49.930;8.660;2024-02-16T09:32:17;7.00;;;3.70;;
17340;SDS011;8788;49.930;8.660;2024-02-16T09:34:44;5.50;;;3.28;;
17340;SDS011;8788;49.930;8.660;2024-02-16T09:37:11;7.28;;;2.78;;
17340;SDS011;8788;49.930;8.660;2024-02-16T09:39:39;7.00;;;3.47;;
17340;SDS011;8788;49.930;8.660;2024-02-16T09:42:06;5.43;;;2.85;;
17340;SDS011;8788;49.930;8.660;2024-02-16T09:44:34;3.90;;;3.38;;
17340;SDS011;8788;49.930;8.660;2024-02-16T09:47:02;6.28;;;3.03;;
17340;SDS011;8788;49.930;8.660;2024-02-16T09:49:33;8.27;;;3.22;;
17340;SDS011;8788;49.930;8.660;2024-02-16T09:52:01;5.43;;;3.42;;
17340;SDS011;8788;49.930;8.660;2024-02-16T09:54:29;5.82;;;3.58;;
17340;SDS011;8788;49.930;8.660;2024-02-16T09:56:59;5.45;;;3.53;;
17340;SDS011;8788;49.930;8.660;2024-02-16T09:59:26;10.30;;;3.70;;
17340;SDS011;8788;49.930;8.660;2024-02-16T10:01:59;5.97;;;3.08;;
17340;SDS011;8788;49.930;8.660;2024-02-16T10:04:26;3.53;;;2.78;;
17340;SDS011;8788;49.930;8.660;2024-02-16T10:06:56;6.35;;;3.45;;
17340;SDS011;8788;49.930;8.660;2024-02-16T10:09:24;4.30;;;3.03;;
17340;SDS011;8788;49.930;8.660;2024-02-16T10:11:51;4.38;;;3.17;;
17340;SDS011;8788;49.930;8.660;2024-02-16T10:14:18;5.43;;;3.10;;
17340;SDS011;8788;49.930;8.660;2024-02-16T10:16:46;4.18;;;2.65;;
17340;SDS011;8788;49.930;8.660;2024-02-16T10:19:13;4.57;;;2.95;;
17340;SDS011;8788;49.930;8.660;2024-02-16T10:21:43;5.65;;;3.28;;
17340;SDS011;8788;49.930;8.660;2024-02-16T10:24:12;4.68;;;3.05;;
17340;SDS011;8788;49.930;8.660;2024-02-16T10:26:40;4.10;;;2.67;;
17340;SDS011;8788;49.930;8.660;2024-02-16T10:29:08;7.93;;;3.42;;
17340;SDS011;8788;49.930;8.660;2024-02-16T10:31:35;5.22;;;3.10;;
17340;SDS011;8788;49.930;8.660;2024-02-16T10:34:03;3.75;;;2.97;;
17340;SDS011;8788;49.930;8.660;2024-02-16T10:36:32;2.97;;;2.67;;
17340;SDS011;8788;49.930;8.660;2024-02-16T10:39:00;5.75;;;2.97;;
17340;SDS011;8788;49.930;8.660;2024-02-16T10:41:33;4.82;;;3.72;;
17340;SDS011;8788;49.930;8.660;2024-02-16T10:44:01;4.60;;;2.70;;
17340;SDS011;8788;49.930;8.660;2024-02-16T10:46:29;4.63;;;3.03;;
17340;SDS011;8788;49.930;8.660;2024-02-16T10:48:56;4.63;;;2.58;;
17340;SDS011;8788;49.930;8.660;2024-02-16T10:51:24;4.45;;;3.10;;
17340;SDS011;8788;49.930;8.660;2024-02-16T10:53:56;4.28;;;2.65;;
17340;SDS011;8788;49.930;8.660;2024-02-16T10:56:26;3.33;;;2.83;;
17340;SDS011;8788;49.930;8.660;2024-02-16T10:59:01;5.18;;;3.15;;
17340;SDS011;8788;49.930;8.660;2024-02-16T11:01:31;4.65;;;2.90;;
17340;SDS011;8788;49.930;8.660;2024-02-16T11:04:03;6.28;;;3.17;;
17340;SDS011;8788;49.930;8.660;2024-02-16T11:06:44;4.82;;;2.88;;
17340;SDS011;8788;49.930;8.660;2024-02-16T11:09:22;3.47;;;2.55;;
17340;SDS011;8788;49.930;8.660;2024-02-16T11:11:52;6.82;;;3.03;;
17340;SDS011;8788;49.930;8.660;2024-02-16T11:14:20;7.95;;;3.15;;
17340;SDS011;8788;49.930;8.660;2024-02-16T11:16:48;4.35;;;2.75;;
17340;SDS011;8788;49.930;8.660;2024-02-16T11:19:16;5.05;;;2.78;;
17340;SDS011;8788;49.930;8.660;2024-02-16T11:21:57;3.42;;;1.83;;
17340;SDS011;8788;49.930;8.660;2024-02-16T11:24:29;6.05;;;3.13;;
17340;SDS011;8788;49.930;8.660;2024-02-16T11:26:57;4.88;;;3.10;;
17340;SDS011;8788;49.930;8.660;2024-02-16T11:29:27;3.55;;;2.80;;
17340;SDS011;8788;49.930;8.660;2024-02-16T11:31:58;5.30;;;3.17;;
17340;SDS011;8788;49.930;8.660;2024-02-16T11:34:26;8.15;;;3.17;;
17340;SDS011;8788;49.930;8.660;2024-02-16T11:36:53;4.80;;;2.33;;
17340;SDS011;8788;49.930;8.660;2024-02-16T11:39:21;3.25;;;2.67;;
17340;SDS011;8788;49.930;8.660;2024-02-16T11:41:58;3.40;;;2.45;;
17340;SDS011;8788;49.930;8.660;2024-02-16T11:44:28;4.43;;;2.40;;
17340;SDS011;8788;49.930;8.660;2024-02-16T11:46:57;5.32;;;2.65;;
17340;SDS011;8788;49.930;8.660;2024-02-16T11:49:24;2.38;;;2.00;;
17340;SDS011;8788;49.930;8.660;2024-02-16T11:51:51;3.20;;;2.00;;
17340;SDS011;8788;49.930;8.660;2024-02-16T11:54:18;3.60;;;1.90;;
17340;SDS011;8788;49.930;8.660;2024-02-16T11:56:46;5.85;;;1.70;;
17340;SDS011;8788;49.930;8.660;2024-02-16T11:59:16;4.30;;;1.70;;
17340;SDS011;8788;49.930;8.660;2024-02-16T12:01:52;6.20;;;2.00;;
17340;SDS011;8788;49.930;8.660;2024-02-16T12:04:21;5.82;;;1.80;;
17340;SDS011;8788;49.930;8.660;2024-02-16T12:06:53;5.20;;;2.97;;
17340;SDS011;8788;49.930;8.660;2024-02-16T12:09:22;5.13;;;1.95;;
17340;SDS011;8788;49.930;8.660;2024-02-16T12:11:49;5.18;;;2.33;;
17340;SDS011;8788;49.930;8.660;2024-02-16T12:14:17;5.13;;;2.40;;
17340;SDS011;8788;49.930;8.660;2024-02-16T12:16:48;3.45;;;2.05;;
17340;SDS011;8788;49.930;8.660;2024-02-16T12:19:17;3.65;;;1.98;;
17340;SDS011;8788;49.930;8.660;2024-02-16T12:21:48;4.22;;;2.35;;
17340;SDS011;8788;49.930;8.660;2024-02-16T12:24:15;3.47;;;2.42;;
17340;SDS011;8788;49.930;8.660;2024-02-16T12:26:43;7.45;;;2.47;;
17340;SDS011;8788;49.930;8.660;2024-02-16T12:29:10;3.75;;;1.77;;
17340;SDS011;8788;49.930;8.660;2024-02-16T12:31:39;6.47;;;2.22;;
17340;SDS011;8788;49.930;8.660;2024-02-16T12:34:06;2.72;;;1.70;;
17340;SDS011;8788;49.930;8.660;2024-02-16T12:36:35;2.95;;;1.88;;
17340;SDS011;8788;49.930;8.660;2024-02-16T12:39:02;2.05;;;1.92;;
17340;SDS011;8788;49.930;8.660;2024-02-16T12:41:31;2.65;;;2.13;;
17340;SDS011;8788;49.930;8.660;2024-02-16T12:43:58;5.40;;;2.00;;
17340;SDS011;8788;49.930;8.660;2024-02-16T12:46:26;3.58;;;2.00;;
17340;SDS011;8788;49.930;8.660;2024-02-16T12:48:53;4.00;;;1.80;;
17340;SDS011;8788;49.930;8.660;2024-02-16T12:51:20;4.90;;;2.08;;
17340;SDS011;8788;49.930;8.660;2024-02-16T12:53:49;4.50;;;1.58;;
17340;SDS011;8788;49.930;8.660;2024-02-16T12:56:16;4.18;;;2.03;;
17340;SDS011;8788;49.930;8.660;2024-02-16T12:58:43;3.20;;;1.88;;
17340;SDS011;8788;49.930;8.660;2024-02-16T13:01:10;6.35;;;2.00;;
17340;SDS011;8788;49.930;8.660;2024-02-16T13:03:38;3.58;;;1.83;;
17340;SDS011;8788;49.930;8.660;2024-02-16T13:06:05;4.97;;;1.55;;
17340;SDS011;8788;49.930;8.660;2024-02-16T13:08:32;3.80;;;2.33;;
17340;SDS011;8788;49.930;8.660;2024-02-16T13:11:02;3.60;;;1.75;;
17340;SDS011;8788;49.930;8.660;2024-02-16T13:13:29;11.40;;;2.28;;
17340;SDS011;8788;49.930;8.660;2024-02-16T13:15:57;5.50;;;2.20;;
17340;SDS011;8788;49.930;8.660;2024-02-16T13:18:24;8.90;;;2.08;;
17340;SDS011;8788;49.930;8.660;2024-02-16T13:20:52;3.47;;;1.75;;
17340;SDS011;8788;49.930;8.660;2024-02-16T13:23:20;4.45;;;2.25;;
17340;SDS011;8788;49.930;8.660;2024-02-16T13:25:47;4.75;;;2.30;;
17340;SDS011;8788;49.930;8.660;2024-02-16T13:28:15;5.25;;;2.08;;
17340;SDS011;8788;49.930;8.660;2024-02-16T13:30:42;6.90;;;1.67;;
17340;SDS011;8788;49.930;8.660;2024-02-16T13:33:09;8.52;;;2.22;;
17340;SDS011;8788;49.930;8.660;2024-02-16T13:35:36;5.50;;;1.83;;
17340;SDS011;8788;49.930;8.660;2024-02-16T13:38:04;9.32;;;2.40;;
17340;SDS011;8788;49.930;8.660;2024-02-16T13:40:31;5.13;;;1.70;;
17340;SDS011;8788;49.930;8.660;2024-02-16T13:42:59;4.53;;;1.70;;
17340;SDS011;8788;49.930;8.660;2024-02-16T13:45:28;4.60;;;2.10;;
17340;SDS011;8788;49.930;8.660;2024-02-16T13:48:13;6.47;;;1.95;;
17340;SDS011;8788;49.930;8.660;2024-02-16T13:50:40;4.65;;;2.10;;
17340;SDS011;8788;49.930;8.660;2024-02-16T13:53:07;4.35;;;2.13;;
17340;SDS011;8788;49.930;8.660;2024-02-16T13:55:34;6.70;;;2.60;;
17340;SDS011;8788;49.930;8.660;2024-02-16T13:58:01;5.93;;;1.70;;
17340;SDS011;8788;49.930;8.660;2024-02-16T14:00:29;2.45;;;1.77;;
17340;SDS011;8788;49.930;8.660;2024-02-16T14:02:57;5.93;;;1.85;;
17340;SDS011;8788;49.930;8.660;2024-02-16T14:05:24;3.25;;;2.03;;
17340;SDS011;8788;49.930;8.660;2024-02-16T14:07:51;6.50;;;2.20;;
17340;SDS011;8788;49.930;8.660;2024-02-16T14:10:19;5.00;;;1.88;;
17340;SDS011;8788;49.930;8.660;2024-02-16T14:12:46;4.05;;;1.70;;
17340;SDS011;8788;49.930;8.660;2024-02-16T14:15:14;6.00;;;1.70;;
17340;SDS011;8788;49.930;8.660;2024-02-16T14:17:43;3.72;;;1.83;;
17340;SDS011;8788;49.930;8.660;2024-02-16T14:20:10;6.10;;;1.98;;
17340;SDS011;8788;49.930;8.660;2024-02-16T14:22:37;3.83;;;1.25;;
17340;SDS011;8788;49.930;8.660;2024-02-16T14:25:04;2.35;;;1.67;;
17340;SDS011;8788;49.930;8.660;2024-02-16T14:27:31;4.00;;;1.77;;
17340;SDS011;8788;49.930;8.660;2024-02-16T14:29:58;7.75;;;1.60;;
17340;SDS011;8788;49.930;8.660;2024-02-16T14:32:26;6.53;;;1.60;;
17340;SDS011;8788;49.930;8.660;2024-02-16T14:34:54;5.35;;;1.70;;
17340;SDS011;8788;49.930;8.660;2024-02-16T14:37:21;2.78;;;2.00;;
17340;SDS011;8788;49.930;8.660;2024-02-16T14:39:48;5.07;;;2.10;;
17340;SDS011;8788;49.930;8.660;2024-02-16T14:42:17;4.38;;;1.50;;
17340;SDS011;8788;49.930;8.660;2024-02-16T14:44:44;3.60;;;1.35;;
17340;SDS011;8788;49.930;8.660;2024-02-16T14:47:11;3.95;;;1.58;;
17340;SDS011;8788;49.930;8.660;2024-02-16T14:49:38;3.05;;;1.63;;
17340;SDS011;8788;49.930;8.660;2024-02-16T14:52:07;6.50;;;1.90;;
17340;SDS011;8788;49.930;8.660;2024-02-16T14:54:35;3.30;;;1.60;;
17340;SDS011;8788;49.930;8.660;2024-02-16T14:57:02;3.70;;;2.10;;
17340;SDS011;8788;49.930;8.660;2024-02-16T14:59:29;3.53;;;2.00;;
17340;SDS011;8788;49.930;8.660;2024-02-16T15:01:56;5.38;;;1.90;;
17340;SDS011;8788;49.930;8.660;2024-02-16T15:04:23;4.25;;;1.67;;